高雄終端管制區 - 高雄雷達席

METAR RCKH 160630Z 27010KT 9999 FEW018 BKN070 BKN120 28/20 Q1011 NOSIG RMK 28011KT/R09 A2986=

站台狀態:Online
最後更新:2021-04-16 14:30:02